sensor_id;sensor_type;location;lat;lon;timestamp;P1;durP1;ratioP1;P2;durP2;ratioP2
66478;SDS011;53294;47.912;13.526;2023-02-15T00:01:46;22.33;;;13.10;;
66478;SDS011;53294;47.912;13.526;2023-02-15T00:04:18;25.98;;;13.18;;
66478;SDS011;53294;47.912;13.526;2023-02-15T00:06:46;21.20;;;13.18;;
66478;SDS011;53294;47.912;13.526;2023-02-15T00:09:13;22.55;;;13.27;;
66478;SDS011;53294;47.912;13.526;2023-02-15T00:11:40;24.30;;;13.68;;
66478;SDS011;53294;47.912;13.526;2023-02-15T00:14:12;37.85;;;13.85;;
66478;SDS011;53294;47.912;13.526;2023-02-15T00:16:41;27.13;;;14.85;;
66478;SDS011;53294;47.912;13.526;2023-02-15T00:19:09;23.65;;;12.80;;
66478;SDS011;53294;47.912;13.526;2023-02-15T00:21:38;19.60;;;12.00;;
66478;SDS011;53294;47.912;13.526;2023-02-15T00:24:06;23.75;;;13.00;;
66478;SDS011;53294;47.912;13.526;2023-02-15T00:26:34;22.88;;;11.77;;
66478;SDS011;53294;47.912;13.526;2023-02-15T00:29:02;20.27;;;11.77;;
66478;SDS011;53294;47.912;13.526;2023-02-15T00:31:29;22.42;;;12.48;;
66478;SDS011;53294;47.912;13.526;2023-02-15T00:34:05;25.98;;;12.88;;
66478;SDS011;53294;47.912;13.526;2023-02-15T00:36:33;21.23;;;12.73;;
66478;SDS011;53294;47.912;13.526;2023-02-15T00:39:00;21.00;;;12.00;;
66478;SDS011;53294;47.912;13.526;2023-02-15T00:41:26;20.63;;;12.02;;
66478;SDS011;53294;47.912;13.526;2023-02-15T00:43:53;24.00;;;12.32;;
66478;SDS011;53294;47.912;13.526;2023-02-15T00:46:20;28.73;;;14.70;;
66478;SDS011;53294;47.912;13.526;2023-02-15T00:48:46;23.88;;;13.07;;
66478;SDS011;53294;47.912;13.526;2023-02-15T00:51:13;22.30;;;12.25;;
66478;SDS011;53294;47.912;13.526;2023-02-15T00:53:40;24.00;;;13.73;;
66478;SDS011;53294;47.912;13.526;2023-02-15T00:56:06;23.45;;;13.02;;
66478;SDS011;53294;47.912;13.526;2023-02-15T00:58:33;26.50;;;14.50;;
66478;SDS011;53294;47.912;13.526;2023-02-15T01:01:07;22.70;;;13.55;;
66478;SDS011;53294;47.912;13.526;2023-02-15T01:03:35;24.08;;;12.38;;
66478;SDS011;53294;47.912;13.526;2023-02-15T01:06:02;28.08;;;14.65;;
66478;SDS011;53294;47.912;13.526;2023-02-15T01:08:30;26.90;;;15.20;;
66478;SDS011;53294;47.912;13.526;2023-02-15T01:10:59;18.83;;;10.60;;
66478;SDS011;53294;47.912;13.526;2023-02-15T01:13:33;22.40;;;12.85;;
66478;SDS011;53294;47.912;13.526;2023-02-15T01:16:01;24.55;;;13.10;;
66478;SDS011;53294;47.912;13.526;2023-02-15T01:18:29;23.65;;;12.13;;
66478;SDS011;53294;47.912;13.526;2023-02-15T01:20:57;27.98;;;14.02;;
66478;SDS011;53294;47.912;13.526;2023-02-15T01:23:23;25.38;;;13.55;;
66478;SDS011;53294;47.912;13.526;2023-02-15T01:25:50;30.60;;;15.75;;
66478;SDS011;53294;47.912;13.526;2023-02-15T01:28:16;30.23;;;14.63;;
66478;SDS011;53294;47.912;13.526;2023-02-15T01:30:43;26.75;;;13.85;;
66478;SDS011;53294;47.912;13.526;2023-02-15T01:33:10;25.63;;;12.63;;
66478;SDS011;53294;47.912;13.526;2023-02-15T01:35:46;24.08;;;13.25;;
66478;SDS011;53294;47.912;13.526;2023-02-15T01:38:13;23.25;;;13.27;;
66478;SDS011;53294;47.912;13.526;2023-02-15T01:40:40;29.98;;;14.68;;
66478;SDS011;53294;47.912;13.526;2023-02-15T01:43:11;25.83;;;13.48;;
66478;SDS011;53294;47.912;13.526;2023-02-15T01:45:38;30.23;;;15.18;;
66478;SDS011;53294;47.912;13.526;2023-02-15T01:50:48;21.85;;;12.98;;
66478;SDS011;53294;47.912;13.526;2023-02-15T01:53:21;24.53;;;12.90;;
66478;SDS011;53294;47.912;13.526;2023-02-15T01:56:13;24.95;;;12.75;;
66478;SDS011;53294;47.912;13.526;2023-02-15T01:58:41;38.20;;;14.85;;
66478;SDS011;53294;47.912;13.526;2023-02-15T02:01:09;22.92;;;12.68;;
66478;SDS011;53294;47.912;13.526;2023-02-15T02:06:24;22.02;;;11.05;;
66478;SDS011;53294;47.912;13.526;2023-02-15T02:08:52;19.60;;;11.60;;
66478;SDS011;53294;47.912;13.526;2023-02-15T02:11:20;22.77;;;11.90;;
66478;SDS011;53294;47.912;13.526;2023-02-15T02:13:48;26.95;;;13.88;;
66478;SDS011;53294;47.912;13.526;2023-02-15T02:16:22;22.25;;;12.32;;
66478;SDS011;53294;47.912;13.526;2023-02-15T02:19:01;22.08;;;11.65;;
66478;SDS011;53294;47.912;13.526;2023-02-15T02:24:43;18.08;;;10.70;;
66478;SDS011;53294;47.912;13.526;2023-02-15T02:38:57;24.88;;;12.90;;
66478;SDS011;53294;47.912;13.526;2023-02-15T02:52:03;26.02;;;13.20;;
66478;SDS011;53294;47.912;13.526;2023-02-15T02:54:32;20.38;;;11.43;;
66478;SDS011;53294;47.912;13.526;2023-02-15T02:57:03;33.10;;;13.50;;
66478;SDS011;53294;47.912;13.526;2023-02-15T02:59:37;17.38;;;10.55;;
66478;SDS011;53294;47.912;13.526;2023-02-15T03:02:10;22.23;;;11.75;;
66478;SDS011;53294;47.912;13.526;2023-02-15T03:04:45;22.10;;;11.40;;
66478;SDS011;53294;47.912;13.526;2023-02-15T03:07:24;21.25;;;11.52;;
66478;SDS011;53294;47.912;13.526;2023-02-15T03:09:55;28.23;;;14.25;;
66478;SDS011;53294;47.912;13.526;2023-02-15T03:12:28;22.13;;;11.85;;
66478;SDS011;53294;47.912;13.526;2023-02-15T03:15:33;27.90;;;13.00;;
66478;SDS011;53294;47.912;13.526;2023-02-15T03:18:20;22.10;;;12.07;;
66478;SDS011;53294;47.912;13.526;2023-02-15T03:20:51;22.50;;;11.57;;
66478;SDS011;53294;47.912;13.526;2023-02-15T03:23:22;28.88;;;13.30;;
66478;SDS011;53294;47.912;13.526;2023-02-15T03:25:57;24.85;;;13.02;;
66478;SDS011;53294;47.912;13.526;2023-02-15T03:28:37;23.77;;;13.20;;
66478;SDS011;53294;47.912;13.526;2023-02-15T03:31:08;22.02;;;12.38;;
66478;SDS011;53294;47.912;13.526;2023-02-15T03:33:40;22.90;;;11.77;;
66478;SDS011;53294;47.912;13.526;2023-02-15T03:38:51;21.02;;;11.73;;
66478;SDS011;53294;47.912;13.526;2023-02-15T03:41:31;24.00;;;13.13;;
66478;SDS011;53294;47.912;13.526;2023-02-15T03:44:04;20.52;;;12.57;;
66478;SDS011;53294;47.912;13.526;2023-02-15T03:46:45;21.13;;;11.40;;
66478;SDS011;53294;47.912;13.526;2023-02-15T03:49:23;26.40;;;13.70;;
66478;SDS011;53294;47.912;13.526;2023-02-15T03:51:55;21.73;;;12.60;;
66478;SDS011;53294;47.912;13.526;2023-02-15T03:54:25;23.08;;;13.10;;
66478;SDS011;53294;47.912;13.526;2023-02-15T03:57:11;29.67;;;13.15;;
66478;SDS011;53294;47.912;13.526;2023-02-15T04:00:04;21.58;;;11.98;;
66478;SDS011;53294;47.912;13.526;2023-02-15T04:05:37;23.90;;;13.93;;
66478;SDS011;53294;47.912;13.526;2023-02-15T04:08:04;29.40;;;14.35;;
66478;SDS011;53294;47.912;13.526;2023-02-15T04:10:31;24.92;;;12.25;;
66478;SDS011;53294;47.912;13.526;2023-02-15T04:13:16;19.17;;;10.73;;
66478;SDS011;53294;47.912;13.526;2023-02-15T04:15:42;23.75;;;12.07;;
66478;SDS011;53294;47.912;13.526;2023-02-15T04:18:35;24.15;;;13.50;;
66478;SDS011;53294;47.912;13.526;2023-02-15T04:21:25;26.92;;;13.35;;
66478;SDS011;53294;47.912;13.526;2023-02-15T04:24:11;36.17;;;16.60;;
66478;SDS011;53294;47.912;13.526;2023-02-15T04:26:57;24.38;;;14.27;;
66478;SDS011;53294;47.912;13.526;2023-02-15T04:29:24;25.42;;;13.95;;
66478;SDS011;53294;47.912;13.526;2023-02-15T04:31:54;24.50;;;13.13;;
66478;SDS011;53294;47.912;13.526;2023-02-15T04:34:22;25.67;;;12.63;;
66478;SDS011;53294;47.912;13.526;2023-02-15T04:36:49;28.88;;;13.88;;
66478;SDS011;53294;47.912;13.526;2023-02-15T04:39:16;22.15;;;11.60;;
66478;SDS011;53294;47.912;13.526;2023-02-15T04:41:44;23.83;;;12.65;;
66478;SDS011;53294;47.912;13.526;2023-02-15T04:44:11;23.88;;;12.75;;
66478;SDS011;53294;47.912;13.526;2023-02-15T04:46:38;25.83;;;13.68;;
66478;SDS011;53294;47.912;13.526;2023-02-15T04:49:05;26.75;;;14.52;;
66478;SDS011;53294;47.912;13.526;2023-02-15T04:51:31;21.38;;;12.27;;
66478;SDS011;53294;47.912;13.526;2023-02-15T04:53:58;24.60;;;12.73;;
66478;SDS011;53294;47.912;13.526;2023-02-15T04:56:24;27.05;;;13.23;;
66478;SDS011;53294;47.912;13.526;2023-02-15T04:58:51;27.45;;;12.48;;
66478;SDS011;53294;47.912;13.526;2023-02-15T05:01:18;28.63;;;14.55;;
66478;SDS011;53294;47.912;13.526;2023-02-15T05:03:44;19.77;;;11.23;;
66478;SDS011;53294;47.912;13.526;2023-02-15T05:06:11;27.08;;;13.35;;
66478;SDS011;53294;47.912;13.526;2023-02-15T05:08:37;22.73;;;12.60;;
66478;SDS011;53294;47.912;13.526;2023-02-15T05:11:04;25.98;;;14.10;;
66478;SDS011;53294;47.912;13.526;2023-02-15T05:13:31;22.77;;;12.63;;
66478;SDS011;53294;47.912;13.526;2023-02-15T05:15:57;21.65;;;12.50;;
66478;SDS011;53294;47.912;13.526;2023-02-15T05:18:24;24.48;;;14.27;;
66478;SDS011;53294;47.912;13.526;2023-02-15T05:20:51;27.23;;;13.77;;
66478;SDS011;53294;47.912;13.526;2023-02-15T05:23:18;24.50;;;13.13;;
66478;SDS011;53294;47.912;13.526;2023-02-15T05:25:47;28.33;;;14.00;;
66478;SDS011;53294;47.912;13.526;2023-02-15T05:28:33;21.88;;;12.65;;
66478;SDS011;53294;47.912;13.526;2023-02-15T05:31:11;23.05;;;11.68;;
66478;SDS011;53294;47.912;13.526;2023-02-15T05:33:40;22.83;;;12.02;;
66478;SDS011;53294;47.912;13.526;2023-02-15T05:36:07;20.05;;;11.75;;
66478;SDS011;53294;47.912;13.526;2023-02-15T05:38:34;23.15;;;12.13;;
66478;SDS011;53294;47.912;13.526;2023-02-15T05:41:03;30.80;;;13.90;;
66478;SDS011;53294;47.912;13.526;2023-02-15T05:43:31;25.27;;;13.25;;
66478;SDS011;53294;47.912;13.526;2023-02-15T05:45:58;24.88;;;12.55;;
66478;SDS011;53294;47.912;13.526;2023-02-15T05:48:26;26.90;;;14.13;;
66478;SDS011;53294;47.912;13.526;2023-02-15T05:51:00;25.02;;;12.88;;
66478;SDS011;53294;47.912;13.526;2023-02-15T05:53:29;27.67;;;14.48;;
66478;SDS011;53294;47.912;13.526;2023-02-15T05:55:57;25.20;;;12.32;;
66478;SDS011;53294;47.912;13.526;2023-02-15T05:58:27;28.20;;;15.10;;
66478;SDS011;53294;47.912;13.526;2023-02-15T06:00:56;26.75;;;14.32;;
66478;SDS011;53294;47.912;13.526;2023-02-15T06:03:23;25.33;;;14.30;;
66478;SDS011;53294;47.912;13.526;2023-02-15T06:05:52;27.60;;;13.63;;
66478;SDS011;53294;47.912;13.526;2023-02-15T06:08:18;30.38;;;14.63;;
66478;SDS011;53294;47.912;13.526;2023-02-15T06:10:46;28.52;;;14.80;;
66478;SDS011;53294;47.912;13.526;2023-02-15T06:13:12;30.75;;;14.98;;
66478;SDS011;53294;47.912;13.526;2023-02-15T06:15:39;29.75;;;14.98;;
66478;SDS011;53294;47.912;13.526;2023-02-15T06:18:06;38.97;;;17.80;;
66478;SDS011;53294;47.912;13.526;2023-02-15T06:20:32;46.17;;;18.42;;
66478;SDS011;53294;47.912;13.526;2023-02-15T06:22:59;30.65;;;14.32;;
66478;SDS011;53294;47.912;13.526;2023-02-15T06:25:25;36.20;;;18.27;;
66478;SDS011;53294;47.912;13.526;2023-02-15T06:27:52;34.78;;;18.02;;
66478;SDS011;53294;47.912;13.526;2023-02-15T06:30:19;28.48;;;14.65;;
66478;SDS011;53294;47.912;13.526;2023-02-15T06:32:45;46.13;;;16.17;;
66478;SDS011;53294;47.912;13.526;2023-02-15T06:35:12;29.70;;;14.05;;
66478;SDS011;53294;47.912;13.526;2023-02-15T06:37:39;25.58;;;13.60;;
66478;SDS011;53294;47.912;13.526;2023-02-15T06:40:06;28.55;;;14.27;;
66478;SDS011;53294;47.912;13.526;2023-02-15T06:42:34;28.75;;;15.65;;
66478;SDS011;53294;47.912;13.526;2023-02-15T06:45:00;25.80;;;13.88;;
66478;SDS011;53294;47.912;13.526;2023-02-15T06:47:27;26.13;;;13.93;;
66478;SDS011;53294;47.912;13.526;2023-02-15T06:49:54;48.83;;;17.15;;
66478;SDS011;53294;47.912;13.526;2023-02-15T06:52:20;40.55;;;16.27;;
66478;SDS011;53294;47.912;13.526;2023-02-15T06:54:47;31.27;;;15.18;;
66478;SDS011;53294;47.912;13.526;2023-02-15T06:57:13;28.67;;;15.32;;
66478;SDS011;53294;47.912;13.526;2023-02-15T06:59:40;29.38;;;15.35;;
66478;SDS011;53294;47.912;13.526;2023-02-15T07:02:08;27.35;;;14.48;;
66478;SDS011;53294;47.912;13.526;2023-02-15T07:04:35;30.33;;;14.93;;
66478;SDS011;53294;47.912;13.526;2023-02-15T07:07:02;27.50;;;14.68;;
66478;SDS011;53294;47.912;13.526;2023-02-15T07:09:29;27.17;;;14.18;;
66478;SDS011;53294;47.912;13.526;2023-02-15T07:11:55;26.13;;;13.23;;
66478;SDS011;53294;47.912;13.526;2023-02-15T07:14:40;28.92;;;14.43;;
66478;SDS011;53294;47.912;13.526;2023-02-15T07:17:07;26.42;;;13.45;;
66478;SDS011;53294;47.912;13.526;2023-02-15T07:19:54;30.08;;;14.65;;
66478;SDS011;53294;47.912;13.526;2023-02-15T07:22:21;35.50;;;16.10;;
66478;SDS011;53294;47.912;13.526;2023-02-15T07:24:48;35.63;;;15.50;;
66478;SDS011;53294;47.912;13.526;2023-02-15T07:27:15;31.52;;;13.98;;
66478;SDS011;53294;47.912;13.526;2023-02-15T07:29:42;33.35;;;13.68;;
66478;SDS011;53294;47.912;13.526;2023-02-15T07:32:08;28.30;;;14.68;;
66478;SDS011;53294;47.912;13.526;2023-02-15T07:34:35;27.52;;;14.23;;
66478;SDS011;53294;47.912;13.526;2023-02-15T07:37:02;30.80;;;14.57;;
66478;SDS011;53294;47.912;13.526;2023-02-15T07:39:28;24.40;;;14.10;;
66478;SDS011;53294;47.912;13.526;2023-02-15T07:41:55;26.42;;;12.73;;
66478;SDS011;53294;47.912;13.526;2023-02-15T07:44:21;25.17;;;13.93;;
66478;SDS011;53294;47.912;13.526;2023-02-15T07:46:48;26.27;;;13.45;;
66478;SDS011;53294;47.912;13.526;2023-02-15T07:49:15;32.30;;;15.63;;
66478;SDS011;53294;47.912;13.526;2023-02-15T07:51:41;30.35;;;15.77;;
66478;SDS011;53294;47.912;13.526;2023-02-15T07:54:08;23.75;;;11.80;;
66478;SDS011;53294;47.912;13.526;2023-02-15T07:56:35;30.17;;;14.60;;
66478;SDS011;53294;47.912;13.526;2023-02-15T07:59:02;28.52;;;14.52;;
66478;SDS011;53294;47.912;13.526;2023-02-15T08:01:32;22.88;;;12.15;;
66478;SDS011;53294;47.912;13.526;2023-02-15T08:04:01;24.45;;;13.10;;
66478;SDS011;53294;47.912;13.526;2023-02-15T08:06:30;25.63;;;12.73;;
66478;SDS011;53294;47.912;13.526;2023-02-15T08:08:58;25.90;;;13.48;;
66478;SDS011;53294;47.912;13.526;2023-02-15T08:11:29;29.35;;;14.80;;
66478;SDS011;53294;47.912;13.526;2023-02-15T08:16:40;27.90;;;16.20;;
66478;SDS011;53294;47.912;13.526;2023-02-15T08:19:08;31.33;;;14.85;;
66478;SDS011;53294;47.912;13.526;2023-02-15T08:21:49;27.27;;;13.48;;
66478;SDS011;53294;47.912;13.526;2023-02-15T08:24:19;36.88;;;19.35;;
66478;SDS011;53294;47.912;13.526;2023-02-15T08:26:47;32.38;;;16.85;;
66478;SDS011;53294;47.912;13.526;2023-02-15T08:29:15;30.55;;;14.73;;
66478;SDS011;53294;47.912;13.526;2023-02-15T08:31:43;28.52;;;15.07;;
66478;SDS011;53294;47.912;13.526;2023-02-15T08:34:11;25.98;;;13.50;;
66478;SDS011;53294;47.912;13.526;2023-02-15T08:36:40;54.55;;;16.50;;
66478;SDS011;53294;47.912;13.526;2023-02-15T08:39:08;31.50;;;15.10;;
66478;SDS011;53294;47.912;13.526;2023-02-15T08:41:35;31.02;;;14.40;;
66478;SDS011;53294;47.912;13.526;2023-02-15T08:44:04;28.10;;;14.38;;
66478;SDS011;53294;47.912;13.526;2023-02-15T08:46:33;31.00;;;15.82;;
66478;SDS011;53294;47.912;13.526;2023-02-15T08:49:02;29.88;;;15.63;;
66478;SDS011;53294;47.912;13.526;2023-02-15T08:51:30;27.98;;;14.52;;
66478;SDS011;53294;47.912;13.526;2023-02-15T08:53:59;33.47;;;15.45;;
66478;SDS011;53294;47.912;13.526;2023-02-15T08:56:28;25.23;;;13.85;;
66478;SDS011;53294;47.912;13.526;2023-02-15T08:58:58;29.17;;;15.77;;
66478;SDS011;53294;47.912;13.526;2023-02-15T09:01:26;26.15;;;14.38;;
66478;SDS011;53294;47.912;13.526;2023-02-15T09:03:56;25.30;;;13.07;;
66478;SDS011;53294;47.912;13.526;2023-02-15T09:06:25;25.10;;;14.63;;
66478;SDS011;53294;47.912;13.526;2023-02-15T09:08:52;29.38;;;15.48;;
66478;SDS011;53294;47.912;13.526;2023-02-15T09:11:21;23.13;;;13.50;;
66478;SDS011;53294;47.912;13.526;2023-02-15T09:13:53;26.80;;;14.50;;
66478;SDS011;53294;47.912;13.526;2023-02-15T09:16:29;27.50;;;15.60;;
66478;SDS011;53294;47.912;13.526;2023-02-15T09:18:58;27.55;;;15.23;;
66478;SDS011;53294;47.912;13.526;2023-02-15T09:21:27;29.70;;;16.05;;
66478;SDS011;53294;47.912;13.526;2023-02-15T09:23:56;27.58;;;14.30;;
66478;SDS011;53294;47.912;13.526;2023-02-15T09:26:26;32.55;;;15.95;;
66478;SDS011;53294;47.912;13.526;2023-02-15T09:28:55;28.33;;;15.13;;
66478;SDS011;53294;47.912;13.526;2023-02-15T09:31:25;27.27;;;14.85;;
66478;SDS011;53294;47.912;13.526;2023-02-15T09:33:53;21.48;;;13.55;;
66478;SDS011;53294;47.912;13.526;2023-02-15T09:36:24;24.77;;;13.88;;
66478;SDS011;53294;47.912;13.526;2023-02-15T09:38:56;27.42;;;15.18;;
66478;SDS011;53294;47.912;13.526;2023-02-15T09:58:06;30.27;;;16.35;;
66478;SDS011;53294;47.912;13.526;2023-02-15T10:11:42;26.45;;;14.45;;
66478;SDS011;53294;47.912;13.526;2023-02-15T10:19:46;27.77;;;15.05;;
66478;SDS011;53294;47.912;13.526;2023-02-15T10:22:22;30.05;;;16.83;;
66478;SDS011;53294;47.912;13.526;2023-02-15T10:27:55;25.30;;;13.90;;
66478;SDS011;53294;47.912;13.526;2023-02-15T10:33:02;21.63;;;11.88;;
66478;SDS011;53294;47.912;13.526;2023-02-15T10:39:06;19.73;;;11.18;;
66478;SDS011;53294;47.912;13.526;2023-02-15T10:41:46;25.45;;;13.52;;
66478;SDS011;53294;47.912;13.526;2023-02-15T10:44:40;21.85;;;12.93;;
66478;SDS011;53294;47.912;13.526;2023-02-15T10:47:25;26.73;;;14.75;;
66478;SDS011;53294;47.912;13.526;2023-02-15T10:50:20;26.10;;;14.20;;
66478;SDS011;53294;47.912;13.526;2023-02-15T11:01:42;41.50;;;20.73;;
66478;SDS011;53294;47.912;13.526;2023-02-15T11:06:43;38.97;;;20.17;;
66478;SDS011;53294;47.912;13.526;2023-02-15T11:09:17;48.30;;;25.55;;
66478;SDS011;53294;47.912;13.526;2023-02-15T11:11:49;39.97;;;20.63;;
66478;SDS011;53294;47.912;13.526;2023-02-15T11:14:35;40.08;;;19.98;;
66478;SDS011;53294;47.912;13.526;2023-02-15T11:17:12;42.67;;;22.23;;
66478;SDS011;53294;47.912;13.526;2023-02-15T11:22:24;39.60;;;20.98;;
66478;SDS011;53294;47.912;13.526;2023-02-15T11:24:51;33.72;;;19.90;;
66478;SDS011;53294;47.912;13.526;2023-02-15T11:27:19;47.05;;;23.80;;
66478;SDS011;53294;47.912;13.526;2023-02-15T11:32:40;41.65;;;21.33;;
66478;SDS011;53294;47.912;13.526;2023-02-15T11:37:41;56.75;;;28.55;;
66478;SDS011;53294;47.912;13.526;2023-02-15T11:40:20;39.30;;;21.63;;
66478;SDS011;53294;47.912;13.526;2023-02-15T11:42:48;49.83;;;24.65;;
66478;SDS011;53294;47.912;13.526;2023-02-15T11:45:22;43.55;;;23.42;;
66478;SDS011;53294;47.912;13.526;2023-02-15T11:47:56;33.72;;;18.95;;
66478;SDS011;53294;47.912;13.526;2023-02-15T11:50:28;35.25;;;20.23;;
66478;SDS011;53294;47.912;13.526;2023-02-15T11:55:43;35.58;;;19.23;;
66478;SDS011;53294;47.912;13.526;2023-02-15T11:58:22;35.47;;;19.13;;
66478;SDS011;53294;47.912;13.526;2023-02-15T12:08:44;45.30;;;24.85;;
66478;SDS011;53294;47.912;13.526;2023-02-15T12:11:20;50.53;;;26.27;;
66478;SDS011;53294;47.912;13.526;2023-02-15T12:13:53;44.80;;;25.10;;
66478;SDS011;53294;47.912;13.526;2023-02-15T12:16:25;40.33;;;22.15;;
66478;SDS011;53294;47.912;13.526;2023-02-15T12:18:57;44.05;;;23.90;;
66478;SDS011;53294;47.912;13.526;2023-02-15T12:21:27;46.08;;;24.17;;
66478;SDS011;53294;47.912;13.526;2023-02-15T12:23:57;49.58;;;26.83;;
66478;SDS011;53294;47.912;13.526;2023-02-15T12:26:33;47.67;;;25.98;;
66478;SDS011;53294;47.912;13.526;2023-02-15T12:29:06;50.03;;;26.83;;
66478;SDS011;53294;47.912;13.526;2023-02-15T12:31:39;53.80;;;26.50;;
66478;SDS011;53294;47.912;13.526;2023-02-15T12:34:09;50.55;;;27.20;;
66478;SDS011;53294;47.912;13.526;2023-02-15T12:37:00;60.05;;;29.83;;
66478;SDS011;53294;47.912;13.526;2023-02-15T12:39:33;74.00;;;33.05;;
66478;SDS011;53294;47.912;13.526;2023-02-15T12:42:02;55.97;;;30.52;;
66478;SDS011;53294;47.912;13.526;2023-02-15T12:44:32;61.05;;;31.52;;
66478;SDS011;53294;47.912;13.526;2023-02-15T12:47:04;53.72;;;27.60;;
66478;SDS011;53294;47.912;13.526;2023-02-15T12:49:33;48.15;;;26.15;;
66478;SDS011;53294;47.912;13.526;2023-02-15T12:52:43;57.78;;;30.75;;
66478;SDS011;53294;47.912;13.526;2023-02-15T12:54:51;58.97;;;29.63;;
66478;SDS011;53294;47.912;13.526;2023-02-15T12:59:48;50.85;;;26.95;;
66478;SDS011;53294;47.912;13.526;2023-02-15T13:02:24;60.78;;;30.38;;
66478;SDS011;53294;47.912;13.526;2023-02-15T13:04:53;63.85;;;31.35;;
66478;SDS011;53294;47.912;13.526;2023-02-15T13:07:22;65.97;;;32.78;;
66478;SDS011;53294;47.912;13.526;2023-02-15T13:09:51;64.22;;;33.38;;
66478;SDS011;53294;47.912;13.526;2023-02-15T13:12:27;68.65;;;33.42;;
66478;SDS011;53294;47.912;13.526;2023-02-15T13:15:00;67.83;;;32.97;;
66478;SDS011;53294;47.912;13.526;2023-02-15T13:17:32;70.55;;;34.38;;
66478;SDS011;53294;47.912;13.526;2023-02-15T13:20:02;66.03;;;31.67;;
66478;SDS011;53294;47.912;13.526;2023-02-15T13:22:36;66.53;;;33.85;;
66478;SDS011;53294;47.912;13.526;2023-02-15T13:25:19;66.88;;;31.90;;
66478;SDS011;53294;47.912;13.526;2023-02-15T13:27:48;75.45;;;35.47;;
66478;SDS011;53294;47.912;13.526;2023-02-15T13:30:24;64.40;;;30.42;;
66478;SDS011;53294;47.912;13.526;2023-02-15T13:33:20;64.40;;;30.27;;
66478;SDS011;53294;47.912;13.526;2023-02-15T13:35:57;68.00;;;32.65;;
66478;SDS011;53294;47.912;13.526;2023-02-15T13:41:30;61.70;;;31.63;;
66478;SDS011;53294;47.912;13.526;2023-02-15T13:44:11;79.40;;;36.40;;
66478;SDS011;53294;47.912;13.526;2023-02-15T13:49:50;79.03;;;36.05;;
66478;SDS011;53294;47.912;13.526;2023-02-15T13:52:23;69.47;;;31.83;;
66478;SDS011;53294;47.912;13.526;2023-02-15T14:00:48;64.28;;;32.83;;
66478;SDS011;53294;47.912;13.526;2023-02-15T14:03:29;68.97;;;34.90;;
66478;SDS011;53294;47.912;13.526;2023-02-15T14:19:42;60.75;;;32.67;;
66478;SDS011;53294;47.912;13.526;2023-02-15T14:30:42;62.08;;;31.65;;
66478;SDS011;53294;47.912;13.526;2023-02-15T14:35:40;66.38;;;32.30;;
66478;SDS011;53294;47.912;13.526;2023-02-15T14:38:25;65.35;;;32.17;;
66478;SDS011;53294;47.912;13.526;2023-02-15T14:46:55;62.28;;;30.05;;
66478;SDS011;53294;47.912;13.526;2023-02-15T14:49:39;64.10;;;33.33;;
66478;SDS011;53294;47.912;13.526;2023-02-15T14:52:07;66.90;;;33.55;;
66478;SDS011;53294;47.912;13.526;2023-02-15T14:59:45;56.70;;;28.70;;
66478;SDS011;53294;47.912;13.526;2023-02-15T15:07:57;61.28;;;30.58;;
66478;SDS011;53294;47.912;13.526;2023-02-15T15:12:53;67.10;;;31.40;;
66478;SDS011;53294;47.912;13.526;2023-02-15T15:20:44;61.13;;;31.38;;
66478;SDS011;53294;47.912;13.526;2023-02-15T15:25:43;56.38;;;29.17;;
66478;SDS011;53294;47.912;13.526;2023-02-15T15:50:00;59.38;;;30.13;;
66478;SDS011;53294;47.912;13.526;2023-02-15T15:52:37;69.20;;;32.40;;
66478;SDS011;53294;47.912;13.526;2023-02-15T15:55:13;73.03;;;33.17;;
66478;SDS011;53294;47.912;13.526;2023-02-15T15:57:43;64.93;;;32.53;;
66478;SDS011;53294;47.912;13.526;2023-02-15T16:03:00;60.25;;;31.42;;
66478;SDS011;53294;47.912;13.526;2023-02-15T16:05:34;60.30;;;32.38;;
66478;SDS011;53294;47.912;13.526;2023-02-15T16:08:01;62.10;;;31.05;;
66478;SDS011;53294;47.912;13.526;2023-02-15T16:10:28;67.47;;;32.17;;
66478;SDS011;53294;47.912;13.526;2023-02-15T16:12:58;70.65;;;33.45;;
66478;SDS011;53294;47.912;13.526;2023-02-15T16:15:33;66.38;;;31.42;;
66478;SDS011;53294;47.912;13.526;2023-02-15T16:18:03;59.88;;;29.83;;
66478;SDS011;53294;47.912;13.526;2023-02-15T16:20:31;65.38;;;32.15;;
66478;SDS011;53294;47.912;13.526;2023-02-15T16:25:55;63.85;;;30.85;;
66478;SDS011;53294;47.912;13.526;2023-02-15T16:28:33;68.95;;;31.50;;
66478;SDS011;53294;47.912;13.526;2023-02-15T16:31:07;98.43;;;34.78;;
66478;SDS011;53294;47.912;13.526;2023-02-15T16:33:41;56.33;;;29.17;;
66478;SDS011;53294;47.912;13.526;2023-02-15T16:36:27;59.83;;;28.95;;
66478;SDS011;53294;47.912;13.526;2023-02-15T16:41:23;58.33;;;27.85;;
66478;SDS011;53294;47.912;13.526;2023-02-15T16:43:54;62.30;;;26.15;;
66478;SDS011;53294;47.912;13.526;2023-02-15T16:49:07;95.10;;;27.98;;
66478;SDS011;53294;47.912;13.526;2023-02-15T16:51:43;140.27;;;31.85;;
66478;SDS011;53294;47.912;13.526;2023-02-15T16:54:15;78.32;;;28.48;;
66478;SDS011;53294;47.912;13.526;2023-02-15T16:56:47;349.05;;;45.97;;
66478;SDS011;53294;47.912;13.526;2023-02-15T16:59:19;113.35;;;31.48;;
66478;SDS011;53294;47.912;13.526;2023-02-15T17:01:52;104.25;;;32.25;;
66478;SDS011;53294;47.912;13.526;2023-02-15T17:07:14;76.18;;;26.88;;
66478;SDS011;53294;47.912;13.526;2023-02-15T17:09:52;48.60;;;24.65;;
66478;SDS011;53294;47.912;13.526;2023-02-15T17:17:58;58.38;;;27.55;;
66478;SDS011;53294;47.912;13.526;2023-02-15T17:20:29;136.40;;;30.30;;
66478;SDS011;53294;47.912;13.526;2023-02-15T17:23:00;100.50;;;28.00;;
66478;SDS011;53294;47.912;13.526;2023-02-15T17:25:39;60.90;;;27.15;;
66478;SDS011;53294;47.912;13.526;2023-02-15T17:28:15;50.10;;;25.85;;
66478;SDS011;53294;47.912;13.526;2023-02-15T17:30:45;66.53;;;28.42;;
66478;SDS011;53294;47.912;13.526;2023-02-15T17:33:23;44.10;;;22.98;;
66478;SDS011;53294;47.912;13.526;2023-02-15T17:38:41;49.88;;;23.63;;
66478;SDS011;53294;47.912;13.526;2023-02-15T17:41:30;62.42;;;27.45;;
66478;SDS011;53294;47.912;13.526;2023-02-15T17:44:00;58.58;;;27.83;;
66478;SDS011;53294;47.912;13.526;2023-02-15T17:46:33;42.15;;;22.13;;
66478;SDS011;53294;47.912;13.526;2023-02-15T17:49:02;53.13;;;22.88;;
66478;SDS011;53294;47.912;13.526;2023-02-15T17:51:30;109.75;;;27.73;;
66478;SDS011;53294;47.912;13.526;2023-02-15T17:53:57;266.00;;;39.45;;
66478;SDS011;53294;47.912;13.526;2023-02-15T17:56:42;42.55;;;21.95;;
66478;SDS011;53294;47.912;13.526;2023-02-15T17:59:09;40.75;;;21.58;;
66478;SDS011;53294;47.912;13.526;2023-02-15T18:01:40;53.08;;;22.15;;
66478;SDS011;53294;47.912;13.526;2023-02-15T18:04:29;41.15;;;22.02;;
66478;SDS011;53294;47.912;13.526;2023-02-15T18:07:15;48.22;;;20.25;;
66478;SDS011;53294;47.912;13.526;2023-02-15T18:10:03;77.00;;;23.58;;
66478;SDS011;53294;47.912;13.526;2023-02-15T18:12:59;50.30;;;20.83;;
66478;SDS011;53294;47.912;13.526;2023-02-15T18:15:26;37.00;;;20.00;;